This is the latest recevied weather packets stored in our database for station/object TAPIOLA. If no packets are shown the sender has not sent any weather packets the latest 10 day(s).
| Time | Temp. | Humidity | Pressure | Rain* | Wind** | Luminosity | Snow |
|---|---|---|---|---|---|---|---|
| 1777642018 | 20° C | 38% | 1017.4 hPa | 0 mm | - | - | - |
| 1777640817 | 18.89° C | 41% | 1017.6 hPa | 0 mm | - | - | - |
| 1777639618 | 20° C | 36% | 1017.9 hPa | 0 mm | - | - | - |
| 1777638418 | 20.56° C | 32% | 1018.2 hPa | 0 mm | - | - | - |
| 1777637217 | 19.44° C | 34% | 1018.3 hPa | 0 mm | - | - | - |
| 1777636017 | 19.44° C | 33% | 1018.5 hPa | 0 mm | - | - | - |
| 1777634817 | 19.44° C | 35% | 1018.8 hPa | 0 mm | - | - | - |
| 1777633617 | 19.44° C | 35% | 1018.8 hPa | 0 mm | - | - | - |
| 1777632417 | 18.89° C | 38% | 1019.1 hPa | 0 mm | - | - | - |
| 1777631217 | 18.89° C | 38% | 1019.3 hPa | 0 mm | - | - | - |
| 1777630017 | 18.89° C | 38% | 1019.5 hPa | 0 mm | - | - | - |
| 1777628817 | 17.78° C | 39% | 1019.7 hPa | 0 mm | - | - | - |
| 1777627617 | 17.78° C | 42% | 1019.8 hPa | 0 mm | - | - | - |
| 1777626417 | 17.22° C | 42% | 1020 hPa | 0 mm | - | - | - |
| 1777625217 | 16.67° C | 45% | 1020.2 hPa | 0 mm | - | - | - |
| 1777624017 | 16.67° C | 44% | 1020.3 hPa | 0 mm | - | - | - |
| 1777622818 | 16.11° C | 47% | 1020.4 hPa | 0 mm | - | - | - |
| 1777621617 | 15.56° C | 47% | 1020.5 hPa | 0 mm | - | - | - |
| 1777620417 | 15.56° C | 49% | 1020.6 hPa | 0 mm | - | - | - |
| 1777619216 | 15° C | 52% | 1020.7 hPa | 0 mm | - | - | - |
| 1777618016 | 13.89° C | 55% | 1020.8 hPa | 0 mm | - | - | - |
| 1777616817 | 12.78° C | 60% | 1020.8 hPa | 0 mm | - | - | - |
| 1777615616 | 12.22° C | 64% | 1020.8 hPa | 0 mm | - | - | - |
| 1777614416 | 11.67° C | 66% | 1020.8 hPa | 0 mm | - | - | - |
| 1777613216 | 10.56° C | 69% | 1020.9 hPa | 0 mm | - | - | - |
* Rain latest hour (hover to see other rain measurements)
** Current wind speed in m/s (hover to see current wind gust speed)